createdAt,value
2022-10-14T00:02:25.479Z,3.92
2022-10-14T00:04:51.838Z,2.65
2022-10-14T00:07:18.279Z,4.20
2022-10-14T00:09:44.873Z,2.90
2022-10-14T00:12:11.294Z,2.75
2022-10-14T00:14:39.323Z,2.35
2022-10-14T00:17:05.754Z,3.03
2022-10-14T00:19:32.074Z,2.63
2022-10-14T00:21:58.358Z,2.78
2022-10-14T00:24:24.776Z,2.47
2022-10-14T00:26:51.106Z,4.25
2022-10-14T00:29:21.001Z,3.85
2022-10-14T00:31:47.351Z,2.40
2022-10-14T00:34:15.788Z,3.75
2022-10-14T00:36:42.309Z,4.35
2022-10-14T00:39:08.930Z,2.65
2022-10-14T00:41:35.625Z,5.70
2022-10-14T00:44:04.901Z,2.67
2022-10-14T00:46:33.431Z,4.63
2022-10-14T00:49:01.761Z,4.43
2022-10-14T00:51:28.362Z,4.40
2022-10-14T00:53:55.018Z,4.80
2022-10-14T00:56:23.517Z,5.20
2022-10-14T00:58:50.273Z,3.20
2022-10-14T01:01:16.806Z,5.15
2022-10-14T01:03:43.208Z,2.63
2022-10-14T01:06:09.477Z,2.63
2022-10-14T01:08:47.347Z,2.47
2022-10-14T01:11:16.938Z,2.85
2022-10-14T01:14:04.026Z,2.78
2022-10-14T01:16:53.159Z,1.48
2022-10-14T01:19:34.845Z,1.48
2022-10-14T01:22:07.783Z,1.30
2022-10-14T01:24:50.868Z,2.67
2022-10-14T01:27:26.030Z,3.83
2022-10-14T01:30:07.707Z,2.55
2022-10-14T01:32:39.983Z,2.00
2022-10-14T01:35:06.246Z,1.88
2022-10-14T01:37:34.554Z,5.22
2022-10-14T01:40:02.882Z,3.03
2022-10-14T01:42:33.036Z,2.67
2022-10-14T01:45:11.532Z,3.63
2022-10-14T01:47:39.082Z,2.55
2022-10-14T01:50:09.382Z,2.00
2022-10-14T01:52:39.520Z,1.38
2022-10-14T01:55:08.814Z,1.98
2022-10-14T01:57:37.137Z,1.60
2022-10-14T02:00:05.041Z,2.40
2022-10-14T02:02:35.682Z,1.90
2022-10-14T02:05:02.779Z,2.50
2022-10-14T02:07:32.432Z,2.22
2022-10-14T02:10:14.058Z,3.10
2022-10-14T02:13:04.334Z,2.53
2022-10-14T02:15:33.661Z,1.80
2022-10-14T02:18:04.527Z,1.38
2022-10-14T02:20:36.277Z,2.38
2022-10-14T02:23:06.481Z,2.85
2022-10-14T02:25:34.486Z,1.55
2022-10-14T02:28:01.725Z,1.77
2022-10-14T02:30:29.318Z,3.00
2022-10-14T02:32:56.106Z,2.10
2022-10-14T02:35:23.890Z,2.40
2022-10-14T02:37:51.835Z,2.05
2022-10-14T02:40:21.266Z,2.08
2022-10-14T02:42:47.762Z,1.15
2022-10-14T02:45:14.467Z,1.55
2022-10-14T02:47:40.822Z,1.60
2022-10-14T02:50:07.638Z,3.30
2022-10-14T02:52:33.907Z,6.38
2022-10-14T02:55:00.309Z,2.67
2022-10-14T02:57:26.665Z,2.33
2022-10-14T02:59:52.964Z,3.25
2022-10-14T03:02:19.559Z,4.20
2022-10-14T03:04:46.103Z,2.70
2022-10-14T03:07:12.425Z,4.95
2022-10-14T03:09:38.740Z,4.75
2022-10-14T03:12:05.154Z,3.90
2022-10-14T03:14:31.443Z,2.88
2022-10-14T03:16:57.738Z,2.88
2022-10-14T03:19:24.212Z,2.20
2022-10-14T03:21:50.634Z,2.00
2022-10-14T03:24:17.017Z,1.52
2022-10-14T03:26:43.312Z,1.48
2022-10-14T03:29:09.594Z,1.63
2022-10-14T03:31:35.935Z,1.55
2022-10-14T03:34:03.673Z,1.83
2022-10-14T03:36:29.949Z,0.80
2022-10-14T03:38:56.225Z,2.45
2022-10-14T03:41:22.651Z,4.18
2022-10-14T03:43:48.938Z,1.38
2022-10-14T03:46:15.212Z,0.85
2022-10-14T03:48:41.619Z,1.85
2022-10-14T03:51:08.132Z,1.10
2022-10-14T03:53:34.422Z,1.23
2022-10-14T03:56:00.812Z,0.88
2022-10-14T03:58:27.095Z,1.55
2022-10-14T04:00:53.394Z,1.67
2022-10-14T04:03:19.696Z,2.20
2022-10-14T04:05:46.122Z,2.63
2022-10-14T04:08:12.411Z,1.30
2022-10-14T04:10:38.879Z,0.73
2022-10-14T04:13:05.166Z,0.82
2022-10-14T04:15:31.580Z,2.35
2022-10-14T04:17:57.931Z,1.77
2022-10-14T04:20:24.291Z,1.00
2022-10-14T04:22:50.711Z,1.33
2022-10-14T04:25:17.117Z,0.82
2022-10-14T04:27:43.399Z,0.95
2022-10-14T04:30:10.019Z,1.90
2022-10-14T04:32:36.326Z,1.20
2022-10-14T04:35:02.746Z,1.20
2022-10-14T04:37:29.986Z,1.38
2022-10-14T04:39:56.382Z,1.48
2022-10-14T04:42:23.027Z,0.90
2022-10-14T04:44:50.604Z,0.90
2022-10-14T04:47:17.014Z,1.50
2022-10-14T04:49:43.444Z,0.90
2022-10-14T04:52:09.847Z,0.60
2022-10-14T04:54:36.453Z,1.73
2022-10-14T04:57:02.815Z,0.70
2022-10-14T04:59:29.146Z,0.60
2022-10-14T05:01:55.650Z,0.70
2022-10-14T05:04:22.052Z,0.77
2022-10-14T05:06:48.331Z,1.15
2022-10-14T05:09:14.753Z,0.90
2022-10-14T05:11:41.041Z,1.23
2022-10-14T05:14:07.431Z,1.65
2022-10-14T05:16:33.746Z,2.10
2022-10-14T05:19:00.626Z,1.20
2022-10-14T05:21:27.040Z,2.72
2022-10-14T05:23:53.461Z,2.58
2022-10-14T05:26:19.742Z,2.70
2022-10-14T05:28:46.084Z,1.83
2022-10-14T05:31:12.601Z,1.75
2022-10-14T05:33:38.991Z,1.15
2022-10-14T05:36:05.436Z,1.40
2022-10-14T05:38:33.662Z,1.30
2022-10-14T05:40:59.983Z,1.55
2022-10-14T05:43:31.754Z,2.03
2022-10-14T05:45:59.225Z,1.52
2022-10-14T05:48:25.527Z,1.08
2022-10-14T05:50:52.359Z,1.10
2022-10-14T05:53:18.943Z,1.33
2022-10-14T05:55:45.294Z,2.00
2022-10-14T05:58:11.584Z,1.40
2022-10-14T06:00:38.110Z,1.90
2022-10-14T06:03:04.497Z,1.60
2022-10-14T06:05:30.856Z,3.15
2022-10-14T06:07:57.163Z,1.73
2022-10-14T06:10:23.581Z,2.30
2022-10-14T06:12:49.920Z,1.20
2022-10-14T06:15:16.268Z,1.50
2022-10-14T06:17:42.594Z,2.13
2022-10-14T06:20:09.138Z,3.30
2022-10-14T06:22:35.446Z,1.65
2022-10-14T06:25:04.269Z,1.10
2022-10-14T06:27:30.977Z,1.73
2022-10-14T06:29:57.296Z,1.33
2022-10-14T06:32:24.166Z,1.80
2022-10-14T06:34:50.697Z,1.30
2022-10-14T06:37:17.057Z,0.80
2022-10-14T06:39:45.038Z,1.10
2022-10-14T06:42:13.176Z,1.10
2022-10-14T06:44:39.860Z,1.40
2022-10-14T06:47:06.548Z,1.20
2022-10-14T06:49:32.829Z,1.15
2022-10-14T06:51:59.252Z,1.20
2022-10-14T06:54:25.674Z,1.70
2022-10-14T06:56:51.993Z,4.05
2022-10-14T06:59:18.780Z,3.88
2022-10-14T07:01:45.129Z,3.17
2022-10-14T07:04:12.664Z,2.65
2022-10-14T07:06:39.115Z,2.47
2022-10-14T07:09:05.398Z,3.05
2022-10-14T07:11:31.685Z,3.08
2022-10-14T07:13:58.084Z,3.85
2022-10-14T07:16:24.360Z,3.67
2022-10-14T07:18:50.825Z,3.78
2022-10-14T07:21:17.285Z,3.05
2022-10-14T07:23:43.577Z,4.20
2022-10-14T07:26:09.931Z,4.65
2022-10-14T07:28:36.427Z,3.80
2022-10-14T07:31:04.493Z,5.72
2022-10-14T07:33:30.881Z,4.72
2022-10-14T07:36:01.795Z,6.82
2022-10-14T07:38:28.080Z,5.55
2022-10-14T07:41:01.918Z,5.47
2022-10-14T07:43:29.035Z,4.75
2022-10-14T07:46:01.641Z,9.27
2022-10-14T07:48:32.879Z,7.43
2022-10-14T07:51:11.310Z,6.15
2022-10-14T07:53:37.628Z,6.07
2022-10-14T07:56:04.101Z,6.75
2022-10-14T07:58:31.295Z,8.73
2022-10-14T08:00:57.965Z,6.05
2022-10-14T08:03:24.497Z,5.05
2022-10-14T08:05:51.016Z,7.75
2022-10-14T08:08:18.155Z,7.95
2022-10-14T08:10:44.691Z,6.63
2022-10-14T08:13:11.098Z,4.90
2022-10-14T08:15:40.378Z,7.78
2022-10-14T08:18:07.850Z,6.20
2022-10-14T08:20:34.701Z,6.38
2022-10-14T08:23:01.058Z,7.82
2022-10-14T08:25:27.826Z,7.75
2022-10-14T08:27:54.888Z,8.57
2022-10-14T08:30:21.370Z,9.73
2022-10-14T08:32:47.704Z,10.45
2022-10-14T08:35:14.062Z,10.23
2022-10-14T08:37:40.513Z,10.13
2022-10-14T08:40:07.216Z,8.70
2022-10-14T08:42:57.436Z,7.30
2022-10-14T08:45:26.590Z,8.00
2022-10-14T08:47:53.364Z,7.10
2022-10-14T08:50:23.495Z,9.48
2022-10-14T08:52:55.668Z,6.40
2022-10-14T08:55:43.563Z,6.65
2022-10-14T08:58:16.083Z,7.78
2022-10-14T09:00:45.009Z,7.43
2022-10-14T09:03:16.633Z,10.88
2022-10-14T09:05:43.342Z,9.80
2022-10-14T09:08:14.049Z,10.13
2022-10-14T09:10:41.801Z,8.27
2022-10-14T09:13:34.274Z,9.35
2022-10-14T09:16:03.677Z,6.75
2022-10-14T09:18:29.936Z,5.63
2022-10-14T09:20:57.754Z,5.93
2022-10-14T09:23:24.688Z,5.82
2022-10-14T09:26:04.422Z,6.32
2022-10-14T09:28:38.066Z,8.77
2022-10-14T09:31:05.869Z,7.95
2022-10-14T09:33:36.185Z,10.98
2022-10-14T09:36:07.259Z,7.28
2022-10-14T09:38:33.573Z,6.85
2022-10-14T09:40:59.931Z,5.60
2022-10-14T09:43:26.406Z,7.38
2022-10-14T09:45:55.940Z,6.85
2022-10-14T09:48:25.028Z,6.57
2022-10-14T09:50:52.968Z,7.07
2022-10-14T09:53:29.718Z,9.15
2022-10-14T09:56:03.953Z,10.50
2022-10-14T09:58:32.588Z,6.47
2022-10-14T10:00:59.982Z,7.03
2022-10-14T10:03:29.178Z,6.35
2022-10-14T10:06:03.698Z,7.43
2022-10-14T10:08:30.113Z,9.15
2022-10-14T10:11:05.490Z,7.72
2022-10-14T10:13:44.901Z,6.35
2022-10-14T10:16:19.702Z,6.68
2022-10-14T10:18:46.055Z,7.30
2022-10-14T10:21:16.058Z,7.80
2022-10-14T10:23:59.560Z,8.45
2022-10-14T10:26:29.287Z,6.13
2022-10-14T10:28:57.385Z,6.07
2022-10-14T10:31:26.905Z,6.93
2022-10-14T10:34:13.554Z,6.50
2022-10-14T10:36:43.728Z,9.10
2022-10-14T10:39:28.358Z,8.55
2022-10-14T10:42:01.395Z,7.28
2022-10-14T10:44:33.651Z,6.80
2022-10-14T10:47:22.874Z,5.95
2022-10-14T10:50:16.551Z,5.72
2022-10-14T10:52:48.736Z,7.65
2022-10-14T10:55:21.125Z,6.28
2022-10-14T10:57:53.045Z,5.22
2022-10-14T11:02:54.878Z,5.90
2022-10-14T11:05:24.032Z,6.57
2022-10-14T11:08:12.268Z,5.43
2022-10-14T11:11:12.530Z,4.57
2022-10-14T11:13:45.513Z,7.40
2022-10-14T11:16:26.380Z,6.97
2022-10-14T11:19:12.302Z,7.07
2022-10-14T11:21:40.888Z,6.95
2022-10-14T11:24:26.100Z,5.18
2022-10-14T11:26:58.642Z,7.32
2022-10-14T11:29:40.337Z,7.82
2022-10-14T11:32:13.277Z,5.07
2022-10-14T11:34:39.575Z,6.32
2022-10-14T11:37:05.854Z,6.97
2022-10-14T11:39:34.830Z,5.50
2022-10-14T11:42:20.822Z,8.77
2022-10-14T11:44:49.548Z,5.13
2022-10-14T11:47:20.585Z,6.47
2022-10-14T11:50:07.273Z,6.03
2022-10-14T11:52:38.107Z,6.35
2022-10-14T11:55:13.752Z,6.18
2022-10-14T11:57:56.613Z,6.22
2022-10-14T12:00:43.523Z,5.95
2022-10-14T12:03:19.543Z,5.18
2022-10-14T12:05:49.925Z,3.63
2022-10-14T12:08:22.472Z,6.22
2022-10-14T12:10:53.816Z,7.13
2022-10-14T12:13:21.954Z,4.53
2022-10-14T12:15:50.167Z,6.55
2022-10-14T12:18:16.578Z,7.63
2022-10-14T12:20:55.106Z,6.07
2022-10-14T12:23:42.478Z,6.20
2022-10-14T12:26:12.606Z,5.55
2022-10-14T12:28:39.449Z,4.30
2022-10-14T12:31:25.931Z,6.22
2022-10-14T12:34:10.478Z,6.90
2022-10-14T12:36:37.729Z,4.95
2022-10-14T12:39:19.537Z,6.90
2022-10-14T12:41:48.936Z,4.28
2022-10-14T12:44:18.900Z,6.68
2022-10-14T12:46:45.901Z,3.65
2022-10-14T12:49:29.261Z,5.75
2022-10-14T12:52:02.732Z,5.90
2022-10-14T12:54:29.752Z,4.05
2022-10-14T12:57:01.310Z,5.65
2022-10-14T12:59:36.403Z,5.65
2022-10-14T13:02:26.029Z,6.65
2022-10-14T13:04:54.000Z,6.03
2022-10-14T13:07:42.421Z,3.80
2022-10-14T13:10:27.762Z,3.20
2022-10-14T13:12:54.333Z,2.70
2022-10-14T13:15:37.834Z,4.22
2022-10-14T13:18:31.068Z,3.33
2022-10-14T13:20:57.514Z,3.35
2022-10-14T13:23:42.540Z,3.17
2022-10-14T13:26:15.944Z,4.65
2022-10-14T13:28:48.098Z,2.72
2022-10-14T13:31:22.020Z,3.08
2022-10-14T13:34:12.983Z,2.60
2022-10-14T13:36:54.632Z,2.50
2022-10-14T13:39:21.162Z,4.28
2022-10-14T13:41:47.963Z,2.95
2022-10-14T13:44:14.845Z,3.10
2022-10-14T13:46:42.692Z,2.22
2022-10-14T13:51:49.536Z,3.53
2022-10-14T13:54:17.831Z,4.85
2022-10-14T13:56:44.553Z,4.20
2022-10-14T13:59:32.976Z,3.22
2022-10-14T14:02:10.685Z,4.78
2022-10-14T14:04:37.302Z,7.00
2022-10-14T14:07:59.210Z,3.92
2022-10-14T14:09:51.964Z,2.92
2022-10-14T14:12:19.442Z,3.20
2022-10-14T14:14:46.097Z,4.95
2022-10-14T14:17:19.771Z,3.92
2022-10-14T14:19:46.843Z,3.63
2022-10-14T14:22:19.237Z,2.50
2022-10-14T14:24:46.466Z,2.80
2022-10-14T14:27:14.026Z,4.07
2022-10-14T14:29:42.121Z,4.35
2022-10-14T14:32:12.608Z,3.17
2022-10-14T14:34:39.609Z,2.15
2022-10-14T14:40:19.476Z,1.60
2022-10-14T14:42:46.846Z,1.90
2022-10-14T14:45:16.797Z,2.80
2022-10-14T14:47:43.773Z,2.38
2022-10-14T14:50:29.999Z,3.03
2022-10-14T14:52:59.745Z,1.80
2022-10-14T14:55:35.244Z,1.55
2022-10-14T14:58:02.515Z,2.00
2022-10-14T15:00:30.614Z,2.55
2022-10-14T15:03:01.477Z,1.77
2022-10-14T15:05:28.275Z,2.72
2022-10-14T15:07:55.985Z,2.00
2022-10-14T15:10:23.750Z,1.88
2022-10-14T15:12:54.505Z,1.27
2022-10-14T15:15:25.412Z,1.60
2022-10-14T15:18:05.169Z,1.20
2022-10-14T15:20:35.080Z,1.58
2022-10-14T15:23:02.540Z,1.27
2022-10-14T15:25:30.288Z,2.10
2022-10-14T15:28:00.831Z,2.15
2022-10-14T15:30:31.958Z,1.77
2022-10-14T15:33:01.526Z,1.50
2022-10-14T15:35:28.285Z,1.92
2022-10-14T15:37:54.684Z,1.40
2022-10-14T15:40:28.529Z,2.03
2022-10-14T15:42:55.110Z,1.50
2022-10-14T15:45:21.728Z,1.30
2022-10-14T15:47:52.534Z,1.65
2022-10-14T15:50:20.817Z,2.55
2022-10-14T15:52:47.815Z,2.15
2022-10-14T15:55:22.009Z,1.73
2022-10-14T15:57:49.756Z,1.45
2022-10-14T16:00:16.843Z,2.95
2022-10-14T16:02:46.325Z,1.95
2022-10-14T16:05:19.884Z,1.50
2022-10-14T16:07:48.335Z,1.10
2022-10-14T16:10:15.683Z,1.20
2022-10-14T16:12:42.094Z,1.02
2022-10-14T16:15:31.595Z,1.98
2022-10-14T16:17:58.134Z,0.75
2022-10-14T16:20:24.564Z,1.02
2022-10-14T16:22:50.994Z,0.47
2022-10-14T16:25:24.052Z,0.77
2022-10-14T16:27:50.825Z,0.60
2022-10-14T16:30:17.172Z,0.95
2022-10-14T16:32:43.448Z,0.80
2022-10-14T16:35:12.250Z,1.48
2022-10-14T16:37:39.095Z,1.55
2022-10-14T16:40:05.758Z,2.25
2022-10-14T16:42:32.157Z,1.33
2022-10-14T16:44:58.437Z,2.03
2022-10-14T16:47:25.098Z,1.90
2022-10-14T16:49:54.716Z,3.20
2022-10-14T16:52:21.669Z,2.78
2022-10-14T16:54:48.367Z,3.17
2022-10-14T16:57:14.881Z,1.33
2022-10-14T16:59:41.239Z,1.15
2022-10-14T17:02:11.006Z,1.25
2022-10-14T17:04:37.624Z,0.70
2022-10-14T17:07:07.339Z,0.85
2022-10-14T17:09:35.004Z,1.58
2022-10-14T17:12:02.315Z,2.95
2022-10-14T17:14:31.268Z,1.13
2022-10-14T17:16:58.500Z,0.60
2022-10-14T17:19:24.944Z,0.43
2022-10-14T17:21:51.257Z,0.30
2022-10-14T17:24:17.702Z,2.08
2022-10-14T17:26:45.243Z,4.60
2022-10-14T17:29:11.636Z,6.32
2022-10-14T17:31:38.893Z,4.30
2022-10-14T17:34:05.335Z,3.33
2022-10-14T17:36:31.696Z,4.07
2022-10-14T17:38:58.689Z,2.10
2022-10-14T17:41:26.311Z,1.95
2022-10-14T17:43:53.313Z,1.85
2022-10-14T17:46:21.134Z,0.77
2022-10-14T17:48:56.236Z,0.60
2022-10-14T17:51:23.604Z,0.80
2022-10-14T17:53:52.384Z,1.40
2022-10-14T17:56:18.754Z,2.05
2022-10-14T17:58:45.024Z,1.52
2022-10-14T18:01:15.347Z,1.05
2022-10-14T18:03:42.953Z,1.02
2022-10-14T18:06:17.219Z,1.10
2022-10-14T18:08:45.091Z,1.65
2022-10-14T18:11:13.025Z,0.93
2022-10-14T18:16:14.455Z,1.10
2022-10-14T18:18:41.702Z,1.25
2022-10-14T18:21:08.831Z,1.63
2022-10-14T18:23:36.575Z,1.95
2022-10-14T18:26:09.432Z,2.38
2022-10-14T18:28:40.473Z,1.65
2022-10-14T18:31:16.958Z,1.85
2022-10-14T18:33:43.772Z,2.13
2022-10-14T18:36:11.192Z,2.20
2022-10-14T18:38:37.559Z,1.88
2022-10-14T18:41:08.585Z,2.00
2022-10-14T18:43:34.901Z,3.87
2022-10-14T18:46:05.951Z,1.60
2022-10-14T18:48:32.741Z,1.90
2022-10-14T18:50:59.836Z,1.95
2022-10-14T18:53:26.944Z,1.25
2022-10-14T18:55:56.721Z,1.10
2022-10-14T18:58:26.017Z,1.25
2022-10-14T19:00:52.514Z,1.20
2022-10-14T19:03:18.918Z,1.30
2022-10-14T19:05:47.053Z,2.97
2022-10-14T19:10:40.687Z,1.77
2022-10-14T19:13:08.119Z,1.88
2022-10-14T19:15:45.229Z,1.40
2022-10-14T19:18:14.267Z,1.10
2022-10-14T19:20:41.801Z,1.00
2022-10-14T19:23:08.267Z,0.70
2022-10-14T19:25:36.077Z,1.02
2022-10-14T19:28:02.357Z,0.52
2022-10-14T19:30:28.666Z,0.60
2022-10-14T19:32:55.086Z,0.50
2022-10-14T19:35:21.803Z,0.25
2022-10-14T19:37:48.324Z,0.45
2022-10-14T19:40:14.617Z,1.13
2022-10-14T19:42:40.928Z,0.52
2022-10-14T19:45:07.373Z,0.35
2022-10-14T19:47:33.650Z,0.43
2022-10-14T19:49:59.944Z,0.30
2022-10-14T19:52:26.374Z,0.30
2022-10-14T19:54:52.672Z,0.70
2022-10-14T19:57:18.945Z,0.55
2022-10-14T19:59:45.414Z,0.65
2022-10-14T20:02:11.691Z,1.38
2022-10-14T20:04:38.014Z,1.98
2022-10-14T20:07:04.479Z,2.53
2022-10-14T20:09:30.824Z,1.35
2022-10-14T20:11:57.241Z,2.38
2022-10-14T20:14:24.152Z,2.33
2022-10-14T20:16:53.605Z,1.90
2022-10-14T20:19:22.252Z,2.83
2022-10-14T20:21:48.550Z,2.55
2022-10-14T20:24:14.881Z,2.75
2022-10-14T20:26:41.461Z,1.30
2022-10-14T20:29:07.914Z,1.75
2022-10-14T20:31:34.286Z,2.50
2022-10-14T20:34:00.559Z,3.05
2022-10-14T20:36:27.009Z,3.05
2022-10-14T20:38:53.363Z,1.55
2022-10-14T20:41:24.092Z,1.27
2022-10-14T20:43:50.893Z,0.90
2022-10-14T20:46:17.859Z,1.00
2022-10-14T20:48:44.267Z,1.02
2022-10-14T20:51:12.376Z,1.30
2022-10-14T20:53:38.911Z,1.30
2022-10-14T20:56:06.624Z,1.10
2022-10-14T20:58:33.011Z,0.80
2022-10-14T21:01:09.893Z,1.50
2022-10-14T21:03:37.511Z,1.67
2022-10-14T21:06:04.921Z,2.15
2022-10-14T21:08:31.801Z,1.75
2022-10-14T21:11:01.830Z,1.30
2022-10-14T21:13:28.805Z,1.13
2022-10-14T21:15:55.522Z,1.58
2022-10-14T21:18:22.452Z,1.60
2022-10-14T21:20:48.996Z,1.13
2022-10-14T21:23:15.343Z,1.23
2022-10-14T21:25:42.053Z,1.35
2022-10-14T21:28:08.434Z,1.52
2022-10-14T21:30:34.882Z,0.85
2022-10-14T21:33:01.334Z,0.82
2022-10-14T21:35:27.702Z,1.23
2022-10-14T21:37:54.006Z,1.90
2022-10-14T21:40:20.486Z,1.50
2022-10-14T21:42:46.936Z,1.42
2022-10-14T21:45:13.231Z,1.08
2022-10-14T21:47:39.550Z,1.50
2022-10-14T21:50:06.125Z,1.17
2022-10-14T21:52:33.814Z,1.23
2022-10-14T21:55:00.138Z,1.20
2022-10-14T21:57:26.542Z,1.10
2022-10-14T21:59:52.823Z,1.40
2022-10-14T22:02:19.442Z,1.02
2022-10-14T22:04:45.750Z,0.90
2022-10-14T22:07:12.066Z,0.60
2022-10-14T22:09:38.416Z,0.60
2022-10-14T22:12:04.796Z,0.73
2022-10-14T22:14:31.096Z,0.57
2022-10-14T22:16:58.160Z,0.70
2022-10-14T22:19:24.600Z,0.70
2022-10-14T22:21:51.113Z,0.70
2022-10-14T22:24:17.464Z,0.50
2022-10-14T22:26:43.796Z,0.60
2022-10-14T22:29:12.232Z,0.52
2022-10-14T22:31:38.622Z,0.47
2022-10-14T22:34:05.681Z,0.40
2022-10-14T22:36:32.568Z,0.38
2022-10-14T22:38:59.583Z,0.40
2022-10-14T22:41:28.777Z,0.22
2022-10-14T22:43:57.954Z,0.25
2022-10-14T22:46:26.364Z,0.20
2022-10-14T22:48:56.755Z,0.10
2022-10-14T22:51:36.481Z,0.10
2022-10-14T22:54:03.211Z,0.20
2022-10-14T22:56:30.530Z,0.10
2022-10-14T22:58:58.401Z,0.30
2022-10-14T23:01:27.700Z,0.20
2022-10-14T23:03:55.015Z,0.20
2022-10-14T23:06:21.770Z,0.20
2022-10-14T23:08:48.116Z,0.10
2022-10-14T23:11:15.693Z,0.20
2022-10-14T23:13:42.377Z,0.20
2022-10-14T23:16:11.880Z,0.20
2022-10-14T23:18:38.328Z,0.20
2022-10-14T23:21:27.744Z,0.30
2022-10-14T23:23:55.687Z,0.10
2022-10-14T23:26:23.548Z,0.10
2022-10-14T23:28:50.787Z,0.10
2022-10-14T23:31:18.306Z,0.10
2022-10-14T23:33:44.865Z,0.20
2022-10-14T23:36:12.116Z,0.20
2022-10-14T23:38:38.738Z,0.20
2022-10-14T23:41:05.699Z,0.15
2022-10-14T23:43:32.436Z,0.20
2022-10-14T23:45:58.938Z,0.20
2022-10-14T23:48:25.497Z,0.22
2022-10-14T23:50:52.695Z,0.20
2022-10-14T23:53:19.345Z,0.17
2022-10-14T23:55:45.771Z,0.10
2022-10-14T23:58:12.681Z,0.20
